createdAt,value
2017-07-06T00:01:07.843Z,10.33
2017-07-06T00:03:35.914Z,9.93
2017-07-06T00:06:05.642Z,10.67
2017-07-06T00:08:35.337Z,9.30
2017-07-06T00:11:03.438Z,10.00
2017-07-06T00:13:32.342Z,9.60
2017-07-06T00:16:00.751Z,9.10
2017-07-06T00:18:31.768Z,9.37
2017-07-06T00:20:59.796Z,9.40
2017-07-06T00:23:27.696Z,10.07
2017-07-06T00:25:55.985Z,9.33
2017-07-06T00:28:26.402Z,9.07
2017-07-06T00:30:54.950Z,9.33
2017-07-06T00:33:24.538Z,9.83
2017-07-06T00:35:53.168Z,9.40
2017-07-06T00:38:20.939Z,9.30
2017-07-06T00:40:48.722Z,9.53
2017-07-06T00:43:18.295Z,9.00
2017-07-06T00:45:46.637Z,10.23
2017-07-06T00:48:15.972Z,9.70
2017-07-06T00:50:44.523Z,9.80
2017-07-06T00:53:20.519Z,9.50
2017-07-06T00:55:49.386Z,9.20
2017-07-06T00:58:17.980Z,9.30
2017-07-06T01:00:46.796Z,10.37
2017-07-06T01:03:14.828Z,8.73
2017-07-06T01:05:43.018Z,9.27
2017-07-06T01:08:12.093Z,8.70
2017-07-06T01:10:41.854Z,9.93
2017-07-06T01:13:12.098Z,9.47
2017-07-06T01:15:41.411Z,9.30
2017-07-06T01:18:08.941Z,10.60
2017-07-06T01:20:36.438Z,8.87
2017-07-06T01:23:03.937Z,9.83
2017-07-06T01:25:31.830Z,10.70
2017-07-06T01:27:59.359Z,8.93
2017-07-06T01:30:27.268Z,10.13
2017-07-06T01:32:54.781Z,10.27
2017-07-06T01:35:22.750Z,9.63
2017-07-06T01:37:50.634Z,9.77
2017-07-06T01:40:18.182Z,9.80
2017-07-06T01:42:46.146Z,10.23
2017-07-06T01:45:14.117Z,10.53
2017-07-06T01:47:42.002Z,10.83
2017-07-06T01:50:09.534Z,9.77
2017-07-06T01:52:37.026Z,10.23
2017-07-06T01:55:04.558Z,11.77
2017-07-06T01:57:32.450Z,11.20
2017-07-06T01:59:59.930Z,10.77
2017-07-06T02:02:27.437Z,10.93
2017-07-06T02:04:55.313Z,11.10
2017-07-06T02:07:23.641Z,10.77
2017-07-06T02:09:52.738Z,10.60
2017-07-06T02:12:20.233Z,11.13
2017-07-06T02:14:48.106Z,10.90
2017-07-06T02:17:15.654Z,10.40
2017-07-06T02:19:43.522Z,10.60
2017-07-06T02:22:11.486Z,11.50
2017-07-06T02:24:39.353Z,10.13
2017-07-06T02:27:07.322Z,11.13
2017-07-06T02:29:35.190Z,10.63
2017-07-06T02:32:03.156Z,10.43
2017-07-06T02:34:30.629Z,10.63
2017-07-06T02:36:58.174Z,11.60
2017-07-06T02:39:26.049Z,10.50
2017-07-06T02:41:54.047Z,11.10
2017-07-06T02:44:21.521Z,11.03
2017-07-06T02:46:49.121Z,10.60
2017-07-06T02:49:17.000Z,10.57
2017-07-06T02:51:45.874Z,10.40
2017-07-06T02:54:14.697Z,11.37
2017-07-06T02:56:42.226Z,11.03
2017-07-06T02:59:10.091Z,10.50
2017-07-06T03:01:38.061Z,11.00
2017-07-06T03:04:05.929Z,12.03
2017-07-06T03:06:33.818Z,11.40
2017-07-06T03:09:01.345Z,11.20
2017-07-06T03:11:28.846Z,11.90
2017-07-06T03:13:56.406Z,12.50
2017-07-06T03:16:23.922Z,11.47
2017-07-06T03:18:51.790Z,12.47
2017-07-06T03:21:19.753Z,12.80
2017-07-06T03:23:47.645Z,12.93
2017-07-06T03:26:15.121Z,13.33
2017-07-06T03:28:42.614Z,13.63
2017-07-06T03:31:10.193Z,12.50
2017-07-06T03:33:38.180Z,12.00
2017-07-06T03:36:06.133Z,11.97
2017-07-06T03:38:34.022Z,11.57
2017-07-06T03:41:01.559Z,12.43
2017-07-06T03:43:29.540Z,12.17
2017-07-06T03:45:57.493Z,12.20
2017-07-06T03:48:25.461Z,13.90
2017-07-06T03:50:53.332Z,26.20
2017-07-06T03:53:21.309Z,13.23
2017-07-06T03:55:50.197Z,12.93
2017-07-06T03:58:18.085Z,12.20
2017-07-06T04:00:45.558Z,11.70
2017-07-06T04:03:13.058Z,13.23
2017-07-06T04:05:40.617Z,12.07
2017-07-06T04:08:08.189Z,10.83
2017-07-06T04:10:36.150Z,13.13
2017-07-06T04:13:04.037Z,11.60
2017-07-06T04:15:31.515Z,12.57
2017-07-06T04:17:59.033Z,11.23
2017-07-06T04:20:26.594Z,11.93
2017-07-06T04:22:54.555Z,12.07
2017-07-06T04:25:22.531Z,12.87
2017-07-06T04:27:50.425Z,12.43
2017-07-06T04:30:18.916Z,12.00
2017-07-06T04:32:46.409Z,11.67
2017-07-06T04:35:13.889Z,12.23
2017-07-06T04:37:41.854Z,12.17
2017-07-06T04:40:09.415Z,12.80
2017-07-06T04:42:39.259Z,11.60
2017-07-06T04:45:06.790Z,11.90
2017-07-06T04:47:34.678Z,11.87
2017-07-06T04:50:03.112Z,11.33
2017-07-06T04:52:30.934Z,11.33
2017-07-06T04:54:59.478Z,12.53
2017-07-06T04:57:27.445Z,12.00
2017-07-06T04:59:55.414Z,11.30
2017-07-06T05:02:23.301Z,12.73
2017-07-06T05:04:51.257Z,11.90
2017-07-06T05:07:19.145Z,11.70
2017-07-06T05:09:46.674Z,13.30
2017-07-06T05:12:14.562Z,12.70
2017-07-06T05:14:42.098Z,14.43
2017-07-06T05:17:10.066Z,11.93
2017-07-06T05:19:38.033Z,11.80
2017-07-06T05:22:05.919Z,11.90
2017-07-06T05:24:33.459Z,11.80
2017-07-06T05:27:01.469Z,12.03
2017-07-06T05:29:28.989Z,11.10
2017-07-06T05:31:56.954Z,12.03
2017-07-06T05:34:25.751Z,12.73
2017-07-06T05:36:53.637Z,13.10
2017-07-06T05:39:22.030Z,11.90
2017-07-06T05:41:49.526Z,11.77
2017-07-06T05:44:17.000Z,11.67
2017-07-06T05:46:44.908Z,12.90
2017-07-06T05:49:12.466Z,12.60
2017-07-06T05:51:39.954Z,11.73
2017-07-06T05:54:07.425Z,12.83
2017-07-06T05:56:34.938Z,11.70
2017-07-06T05:59:02.404Z,12.77
2017-07-06T06:01:29.954Z,14.60
2017-07-06T06:03:57.426Z,12.27
2017-07-06T06:06:24.919Z,11.70
2017-07-06T06:08:52.391Z,12.13
2017-07-06T06:11:20.278Z,11.93
2017-07-06T06:13:47.805Z,12.43
2017-07-06T06:16:15.717Z,14.67
2017-07-06T06:18:43.185Z,11.83
2017-07-06T06:21:10.792Z,11.80
2017-07-06T06:23:38.776Z,12.17
2017-07-06T06:26:06.360Z,12.53
2017-07-06T06:28:33.877Z,12.63
2017-07-06T06:31:01.837Z,22.30
2017-07-06T06:33:29.333Z,31.40
2017-07-06T06:35:56.890Z,45.67
2017-07-06T06:38:24.421Z,61.97
2017-07-06T06:40:52.309Z,63.53
2017-07-06T06:43:19.842Z,57.47
2017-07-06T06:45:47.725Z,51.50
2017-07-06T06:48:15.219Z,42.90
2017-07-06T06:50:42.721Z,38.43
2017-07-06T06:53:10.589Z,37.63
2017-07-06T06:55:38.563Z,39.47
2017-07-06T06:58:06.113Z,38.93
2017-07-06T07:00:33.985Z,34.80
2017-07-06T07:03:01.949Z,34.20
2017-07-06T07:05:31.778Z,30.77
2017-07-06T07:07:59.317Z,46.17
2017-07-06T07:10:27.215Z,54.90
2017-07-06T07:12:54.685Z,67.93
2017-07-06T07:15:22.205Z,66.70
2017-07-06T07:17:51.017Z,59.80
2017-07-06T07:20:18.543Z,61.20
2017-07-06T07:22:48.374Z,60.07
2017-07-06T07:25:15.959Z,68.77
2017-07-06T07:27:43.453Z,82.33
2017-07-06T07:30:10.928Z,86.50
2017-07-06T07:32:38.421Z,87.60
2017-07-06T07:35:05.951Z,63.57
2017-07-06T07:37:33.849Z,55.50
2017-07-06T07:40:01.425Z,53.50
2017-07-06T07:42:29.277Z,57.00
2017-07-06T07:44:56.791Z,49.43
2017-07-06T07:47:24.665Z,50.17
2017-07-06T07:49:52.672Z,51.53
2017-07-06T07:52:20.146Z,64.77
2017-07-06T07:54:47.651Z,60.33
2017-07-06T07:57:15.615Z,51.47
2017-07-06T07:59:43.580Z,50.07
2017-07-06T08:02:11.453Z,46.77
2017-07-06T08:04:40.241Z,43.63
2017-07-06T08:07:08.202Z,40.83
2017-07-06T08:09:36.095Z,41.33
2017-07-06T08:12:03.568Z,37.17
2017-07-06T08:14:31.977Z,38.70
2017-07-06T08:16:59.474Z,33.50
2017-07-06T08:19:28.303Z,32.27
2017-07-06T08:21:56.753Z,29.23
2017-07-06T08:24:24.335Z,27.73
2017-07-06T08:26:52.760Z,26.03
2017-07-06T08:29:20.258Z,26.77
2017-07-06T08:31:47.781Z,24.97
2017-07-06T08:34:15.770Z,25.23
2017-07-06T08:36:43.314Z,24.63
2017-07-06T08:39:11.279Z,25.67
2017-07-06T08:41:38.838Z,23.70
2017-07-06T08:44:06.710Z,21.40
2017-07-06T08:46:35.496Z,22.13
2017-07-06T08:49:04.306Z,23.20
2017-07-06T08:51:31.838Z,25.33
2017-07-06T08:53:59.801Z,24.17
2017-07-06T08:56:27.790Z,21.73
2017-07-06T08:58:55.342Z,21.80
2017-07-06T09:01:23.211Z,20.90
2017-07-06T09:03:51.169Z,30.00
2017-07-06T09:06:19.058Z,23.87
2017-07-06T09:08:46.585Z,20.43
2017-07-06T09:11:16.034Z,20.60
2017-07-06T09:13:44.474Z,20.63
2017-07-06T09:16:12.345Z,20.00
2017-07-06T09:18:40.301Z,20.87
2017-07-06T09:21:08.714Z,19.07
2017-07-06T09:23:36.241Z,18.43
2017-07-06T09:26:04.109Z,19.73
2017-07-06T09:28:32.074Z,21.40
2017-07-06T09:30:59.634Z,23.57
2017-07-06T09:33:27.610Z,18.10
2017-07-06T09:35:57.454Z,19.80
2017-07-06T09:38:25.016Z,18.33
2017-07-06T09:40:52.489Z,19.53
2017-07-06T09:43:19.986Z,18.27
2017-07-06T09:45:47.858Z,16.90
2017-07-06T09:48:15.821Z,23.33
2017-07-06T09:50:43.694Z,23.00
2017-07-06T09:53:11.761Z,18.87
2017-07-06T09:55:39.634Z,25.20
2017-07-06T09:58:07.187Z,17.97
2017-07-06T10:00:36.015Z,17.17
2017-07-06T10:03:03.516Z,18.10
2017-07-06T10:05:30.997Z,16.33
2017-07-06T10:07:58.958Z,16.30
2017-07-06T10:10:27.888Z,16.97
2017-07-06T10:12:55.401Z,16.70
2017-07-06T10:15:23.269Z,22.30
2017-07-06T10:17:51.238Z,16.40
2017-07-06T10:20:19.126Z,15.83
2017-07-06T10:22:46.662Z,16.70
2017-07-06T10:25:14.630Z,15.90
2017-07-06T10:27:42.594Z,15.73
2017-07-06T10:30:10.465Z,15.30
2017-07-06T10:32:38.432Z,16.00
2017-07-06T10:35:06.311Z,15.10
2017-07-06T10:37:34.207Z,14.70
2017-07-06T10:40:02.741Z,15.87
2017-07-06T10:42:30.306Z,15.63
2017-07-06T10:44:58.274Z,14.67
2017-07-06T10:47:26.243Z,15.77
2017-07-06T10:49:53.845Z,15.10
2017-07-06T10:52:21.357Z,13.73
2017-07-06T10:54:49.327Z,15.20
2017-07-06T10:57:17.217Z,14.50
2017-07-06T10:59:44.699Z,19.43
2017-07-06T11:02:13.006Z,14.83
2017-07-06T11:04:41.417Z,22.67
2017-07-06T11:07:09.373Z,14.53
2017-07-06T11:09:37.348Z,29.60
2017-07-06T11:12:05.218Z,21.80
2017-07-06T11:14:35.050Z,16.23
2017-07-06T11:17:02.578Z,12.70
2017-07-06T11:19:30.073Z,15.90
2017-07-06T11:21:57.542Z,14.00
2017-07-06T11:24:25.033Z,13.87
2017-07-06T11:26:52.605Z,15.73
2017-07-06T11:29:20.494Z,17.20
2017-07-06T11:31:48.031Z,12.27
2017-07-06T11:34:17.863Z,12.80
2017-07-06T11:36:45.405Z,11.47
2017-07-06T11:39:13.370Z,12.10
2017-07-06T11:41:43.189Z,12.77
2017-07-06T11:44:11.142Z,12.07
2017-07-06T11:46:38.644Z,11.33
2017-07-06T11:49:06.173Z,11.60
2017-07-06T11:51:34.064Z,14.50
2017-07-06T11:54:01.553Z,12.47
2017-07-06T11:56:29.047Z,16.63
2017-07-06T11:58:57.013Z,11.73
2017-07-06T12:01:24.481Z,14.30
2017-07-06T12:03:52.370Z,11.10
2017-07-06T12:06:19.890Z,9.93
2017-07-06T12:08:47.381Z,13.53
2017-07-06T12:11:14.923Z,11.07
2017-07-06T12:13:42.513Z,9.97
2017-07-06T12:16:11.049Z,11.30
2017-07-06T12:18:38.942Z,11.70
2017-07-06T12:21:07.374Z,9.83
2017-07-06T12:23:34.957Z,11.67
2017-07-06T12:26:03.789Z,11.13
2017-07-06T12:28:31.278Z,11.17
2017-07-06T12:30:58.761Z,17.60
2017-07-06T12:33:26.642Z,11.10
2017-07-06T12:35:55.466Z,12.83
2017-07-06T12:38:22.957Z,14.17
2017-07-06T12:40:50.534Z,15.07
2017-07-06T12:43:18.426Z,11.30
2017-07-06T12:45:46.861Z,11.00
2017-07-06T12:48:14.354Z,10.47
2017-07-06T12:50:41.911Z,10.10
2017-07-06T12:53:09.789Z,9.43
2017-07-06T12:55:37.291Z,15.07
2017-07-06T12:58:04.784Z,9.30
2017-07-06T13:00:32.650Z,11.30
2017-07-06T13:03:00.540Z,11.40
2017-07-06T13:05:28.075Z,9.30
2017-07-06T13:07:55.970Z,8.73
2017-07-06T13:10:23.457Z,9.57
2017-07-06T13:12:50.946Z,9.33
2017-07-06T13:15:18.859Z,9.53
2017-07-06T13:17:46.362Z,9.27
2017-07-06T13:20:13.931Z,9.30
2017-07-06T13:22:42.742Z,9.27
2017-07-06T13:25:10.290Z,8.57
2017-07-06T13:27:37.986Z,8.17
2017-07-06T13:30:05.695Z,11.83
2017-07-06T13:32:35.542Z,9.07
2017-07-06T13:35:03.040Z,7.87
2017-07-06T13:37:30.527Z,8.87
2017-07-06T13:39:58.398Z,8.33
2017-07-06T13:42:26.347Z,10.17
2017-07-06T13:44:53.816Z,8.20
2017-07-06T13:47:21.709Z,10.20
2017-07-06T13:49:49.266Z,7.37
2017-07-06T13:52:16.774Z,7.37
2017-07-06T13:54:44.256Z,9.73
2017-07-06T13:57:12.206Z,7.63
2017-07-06T13:59:39.689Z,8.63
2017-07-06T14:02:07.606Z,9.10
2017-07-06T14:04:35.109Z,7.37
2017-07-06T14:07:03.014Z,8.53
2017-07-06T14:09:30.530Z,9.20
2017-07-06T14:11:58.429Z,7.67
2017-07-06T14:14:25.928Z,8.57
2017-07-06T14:16:53.499Z,6.70
2017-07-06T14:19:20.965Z,6.83
2017-07-06T14:21:48.505Z,7.40
2017-07-06T14:24:16.087Z,7.60
2017-07-06T14:26:43.594Z,7.03
2017-07-06T14:29:11.068Z,6.83
2017-07-06T14:31:38.658Z,6.80
2017-07-06T14:34:06.607Z,9.20
2017-07-06T14:36:35.114Z,7.30
2017-07-06T14:39:03.031Z,6.97
2017-07-06T14:41:30.538Z,7.60
2017-07-06T14:43:58.087Z,6.70
2017-07-06T14:46:25.658Z,7.33
2017-07-06T14:48:53.550Z,6.73
2017-07-06T14:51:21.441Z,11.80
2017-07-06T14:53:48.965Z,10.03
2017-07-06T14:56:16.555Z,7.33
2017-07-06T14:58:44.054Z,6.80
2017-07-06T15:01:11.538Z,9.27
2017-07-06T15:03:39.069Z,6.77
2017-07-06T15:06:06.669Z,6.80
2017-07-06T15:08:34.133Z,8.80
2017-07-06T15:11:03.601Z,10.03
2017-07-06T15:13:31.501Z,6.77
2017-07-06T15:15:59.013Z,6.60
2017-07-06T15:18:26.879Z,8.50
2017-07-06T15:20:54.845Z,7.43
2017-07-06T15:23:22.349Z,6.40
2017-07-06T15:25:51.810Z,7.40
2017-07-06T15:28:19.676Z,7.90
2017-07-06T15:30:47.567Z,7.10
2017-07-06T15:33:15.101Z,6.97
2017-07-06T15:35:43.009Z,5.90
2017-07-06T15:38:10.469Z,6.40
2017-07-06T15:40:39.874Z,6.77
2017-07-06T15:43:07.382Z,6.03
2017-07-06T15:45:36.227Z,5.17
2017-07-06T15:48:03.698Z,6.60
2017-07-06T15:50:31.286Z,6.97
2017-07-06T15:52:58.761Z,6.20
2017-07-06T15:55:26.298Z,6.17
